createdAt,value
2023-03-13T00:00:33.114Z,4.20
2023-03-13T00:01:33.070Z,4.90
2023-03-13T00:02:33.152Z,4.00
2023-03-13T00:03:33.052Z,4.40
2023-03-13T00:04:33.112Z,4.60
2023-03-13T00:05:33.021Z,4.00
2023-03-13T00:06:33.051Z,3.90
2023-03-13T00:07:33.022Z,4.10
2023-03-13T00:08:33.026Z,4.50
2023-03-13T00:09:32.988Z,4.10
2023-03-13T00:10:32.963Z,3.80
2023-03-13T00:11:32.994Z,4.60
2023-03-13T00:12:33.154Z,5.10
2023-03-13T00:13:32.960Z,4.10
2023-03-13T00:14:32.924Z,4.00
2023-03-13T00:15:32.911Z,3.90
2023-03-13T00:16:32.942Z,4.70
2023-03-13T00:17:32.893Z,4.10
2023-03-13T00:18:32.920Z,4.60
2023-03-13T00:19:32.893Z,4.90
2023-03-13T00:20:32.871Z,4.20
2023-03-13T00:21:32.849Z,5.30
2023-03-13T00:22:34.503Z,4.20
2023-03-13T00:23:32.829Z,4.40
2023-03-13T00:24:32.833Z,3.80
2023-03-13T00:25:32.793Z,4.50
2023-03-13T00:26:32.794Z,4.50
2023-03-13T00:27:32.814Z,4.30
2023-03-13T00:28:32.960Z,4.50
2023-03-13T00:29:32.828Z,4.50
2023-03-13T00:30:32.826Z,4.30
2023-03-13T00:31:32.844Z,3.80
2023-03-13T00:32:32.923Z,4.30
2023-03-13T00:33:32.709Z,4.20
2023-03-13T00:34:32.713Z,3.40
2023-03-13T00:35:32.768Z,5.10
2023-03-13T00:36:32.683Z,4.20
2023-03-13T00:37:32.718Z,4.40
2023-03-13T00:38:32.669Z,3.60
2023-03-13T00:39:32.663Z,4.40
2023-03-13T00:40:32.658Z,3.70
2023-03-13T00:41:32.634Z,4.10
2023-03-13T00:42:32.605Z,4.00
2023-03-13T00:43:32.646Z,4.50
2023-03-13T00:44:32.615Z,4.70
2023-03-13T00:45:32.585Z,3.90
2023-03-13T00:46:32.624Z,4.10
2023-03-13T00:47:32.560Z,4.40
2023-03-13T00:48:32.536Z,4.50
2023-03-13T00:49:32.558Z,3.50
2023-03-13T00:50:32.532Z,4.10
2023-03-13T00:51:32.506Z,4.10
2023-03-13T00:52:32.500Z,3.80
2023-03-13T00:53:32.481Z,3.80
2023-03-13T00:54:32.506Z,3.90
2023-03-13T00:55:32.473Z,4.60
2023-03-13T00:56:32.461Z,3.90
2023-03-13T00:57:32.440Z,4.30
2023-03-13T00:58:32.426Z,4.10
2023-03-13T00:59:32.468Z,3.90
2023-03-13T01:00:32.408Z,3.80
2023-03-13T01:01:32.407Z,4.50
2023-03-13T01:02:32.547Z,4.30
2023-03-13T01:03:32.457Z,4.30
2023-03-13T01:04:32.382Z,4.00
2023-03-13T01:05:32.364Z,3.90
2023-03-13T01:06:32.362Z,4.40
2023-03-13T01:07:32.333Z,4.20
2023-03-13T01:08:32.330Z,4.30
2023-03-13T01:09:32.339Z,4.80
2023-03-13T01:10:32.312Z,4.00
2023-03-13T01:11:32.287Z,4.30
2023-03-13T01:12:32.307Z,3.90
2023-03-13T01:13:32.268Z,3.90
2023-03-13T01:14:32.258Z,4.80
2023-03-13T01:15:32.311Z,3.60
2023-03-13T01:16:32.277Z,4.20
2023-03-13T01:17:32.246Z,3.90
2023-03-13T01:18:32.231Z,3.40
2023-03-13T01:19:32.202Z,4.10
2023-03-13T01:20:32.213Z,4.40
2023-03-13T01:21:32.196Z,3.50
2023-03-13T01:22:32.199Z,4.20
2023-03-13T01:23:39.194Z,3.80
2023-03-13T01:24:32.152Z,4.60
2023-03-13T01:25:32.129Z,3.50
2023-03-13T01:26:32.118Z,3.70
2023-03-13T01:27:32.129Z,3.80
2023-03-13T01:28:32.139Z,4.30
2023-03-13T01:29:32.120Z,3.70
2023-03-13T01:30:32.081Z,3.60
2023-03-13T01:31:32.178Z,4.10
2023-03-13T01:32:32.186Z,3.80
2023-03-13T01:33:32.205Z,4.30
2023-03-13T01:34:32.037Z,4.20
2023-03-13T01:35:32.120Z,4.10
2023-03-13T01:36:32.023Z,4.10
2023-03-13T01:37:32.046Z,4.20
2023-03-13T01:38:32.013Z,3.70
2023-03-13T01:39:31.982Z,4.40
2023-03-13T01:40:31.982Z,3.90
2023-03-13T01:41:32.008Z,3.50
2023-03-13T01:42:31.962Z,3.80
2023-03-13T01:43:31.939Z,3.70
2023-03-13T01:44:31.931Z,3.60
2023-03-13T01:45:31.908Z,3.50
2023-03-13T01:46:31.981Z,4.80
2023-03-13T01:47:31.926Z,3.70
2023-03-13T01:48:31.882Z,4.20
2023-03-13T01:49:31.868Z,3.50
2023-03-13T01:50:31.853Z,3.40
2023-03-13T01:51:31.871Z,3.70
2023-03-13T01:52:31.871Z,3.90
2023-03-13T01:53:31.825Z,4.00
2023-03-13T01:54:31.812Z,3.70
2023-03-13T01:55:31.812Z,3.60
2023-03-13T01:56:31.815Z,3.30
2023-03-13T01:57:31.803Z,4.10
2023-03-13T01:58:31.765Z,4.00
2023-03-13T01:59:31.797Z,3.90
2023-03-13T02:00:31.741Z,4.00
2023-03-13T02:01:31.786Z,3.90
2023-03-13T02:02:31.778Z,3.60
2023-03-13T02:03:31.747Z,3.60
2023-03-13T02:04:31.732Z,3.50
2023-03-13T02:05:31.701Z,3.40
2023-03-13T02:06:31.682Z,3.90
2023-03-13T02:07:31.678Z,3.80
2023-03-13T02:08:31.663Z,4.30
2023-03-13T02:09:31.675Z,3.70
2023-03-13T02:10:31.682Z,4.00
2023-03-13T02:11:31.622Z,3.50
2023-03-13T02:12:31.632Z,3.60
2023-03-13T02:13:31.612Z,4.00
2023-03-13T02:14:31.602Z,4.40
2023-03-13T02:15:31.583Z,3.50
2023-03-13T02:16:31.688Z,3.70
2023-03-13T02:17:31.582Z,3.40
2023-03-13T02:18:31.550Z,3.70
2023-03-13T02:19:31.585Z,3.80
2023-03-13T02:20:31.527Z,4.10
2023-03-13T02:21:31.511Z,3.70
2023-03-13T02:22:31.519Z,3.30
2023-03-13T02:23:31.555Z,3.60
2023-03-13T02:24:31.506Z,3.80
2023-03-13T02:25:31.481Z,3.70
2023-03-13T02:26:31.500Z,3.60
2023-03-13T02:27:31.457Z,4.30
2023-03-13T02:28:31.446Z,4.80
2023-03-13T02:29:31.444Z,4.00
2023-03-13T02:30:31.464Z,4.40
2023-03-13T02:31:31.615Z,3.80
2023-03-13T02:32:31.457Z,3.90
2023-03-13T02:33:31.412Z,3.70
2023-03-13T02:34:31.372Z,3.40
2023-03-13T02:35:31.441Z,4.10
2023-03-13T02:36:31.355Z,3.90
2023-03-13T02:37:31.337Z,3.80
2023-03-13T02:38:31.339Z,4.00
2023-03-13T02:39:31.330Z,4.20
2023-03-13T02:40:31.312Z,3.70
2023-03-13T02:41:31.289Z,3.90
2023-03-13T02:42:31.277Z,3.60
2023-03-13T02:43:31.333Z,3.80
2023-03-13T02:44:31.285Z,4.40
2023-03-13T02:45:31.426Z,4.40
2023-03-13T02:46:31.266Z,3.90
2023-03-13T02:47:31.234Z,3.80
2023-03-13T02:48:31.236Z,3.80
2023-03-13T02:49:31.203Z,3.60
2023-03-13T02:50:31.210Z,4.10
2023-03-13T02:51:31.204Z,3.10
2023-03-13T02:52:31.224Z,3.80
2023-03-13T02:53:31.170Z,3.80
2023-03-13T02:54:31.170Z,3.50
2023-03-13T02:55:31.152Z,3.90
2023-03-13T02:56:31.140Z,3.70
2023-03-13T02:57:31.125Z,3.90
2023-03-13T02:58:33.567Z,3.80
2023-03-13T02:59:31.094Z,3.60
2023-03-13T03:00:31.163Z,3.80
2023-03-13T03:01:31.073Z,3.60
2023-03-13T03:02:31.106Z,4.00
2023-03-13T03:03:31.092Z,3.80
2023-03-13T03:04:31.044Z,3.30
2023-03-13T03:05:31.041Z,3.50
2023-03-13T03:06:31.016Z,4.30
2023-03-13T03:07:31.045Z,3.90
2023-03-13T03:08:30.998Z,3.50
2023-03-13T03:09:30.997Z,3.60
2023-03-13T03:10:30.972Z,3.70
2023-03-13T03:11:30.965Z,3.70
2023-03-13T03:12:30.986Z,3.50
2023-03-13T03:13:30.939Z,3.90
2023-03-13T03:14:30.947Z,4.00
2023-03-13T03:15:30.933Z,3.60
2023-03-13T03:16:31.027Z,3.50
2023-03-13T03:17:30.905Z,3.30
2023-03-13T03:18:32.620Z,3.50
2023-03-13T03:19:30.876Z,3.50
2023-03-13T03:20:30.873Z,4.00
2023-03-13T03:21:30.871Z,3.70
2023-03-13T03:22:30.877Z,3.70
2023-03-13T03:23:30.841Z,3.50
2023-03-13T03:24:30.832Z,3.70
2023-03-13T03:25:30.824Z,3.60
2023-03-13T03:26:30.817Z,4.30
2023-03-13T03:27:30.781Z,4.00
2023-03-13T03:28:30.777Z,3.80
2023-03-13T03:29:30.777Z,3.60
2023-03-13T03:30:30.780Z,4.10
2023-03-13T03:31:30.777Z,4.20
2023-03-13T03:32:30.807Z,3.80
2023-03-13T03:33:30.714Z,3.70
2023-03-13T03:34:30.721Z,3.70
2023-03-13T03:35:30.755Z,3.50
2023-03-13T03:36:30.681Z,3.70
2023-03-13T03:37:30.688Z,4.10
2023-03-13T03:38:30.662Z,3.40
2023-03-13T03:39:30.670Z,3.80
2023-03-13T03:40:30.657Z,4.20
2023-03-13T03:41:30.631Z,3.70
2023-03-13T03:42:30.630Z,3.60
2023-03-13T03:43:30.619Z,3.60
2023-03-13T03:44:30.598Z,3.70
2023-03-13T03:45:30.647Z,3.90
2023-03-13T03:46:30.574Z,3.30
2023-03-13T03:47:30.692Z,2.90
2023-03-13T03:48:30.550Z,3.20
2023-03-13T03:49:30.539Z,4.40
2023-03-13T03:50:30.544Z,3.60
2023-03-13T03:51:30.517Z,4.00
2023-03-13T03:52:30.496Z,4.00
2023-03-13T03:53:30.512Z,3.40
2023-03-13T03:54:30.487Z,3.50
2023-03-13T03:55:30.514Z,3.40
2023-03-13T03:56:30.481Z,4.30
2023-03-13T03:57:30.489Z,4.40
2023-03-13T03:58:30.442Z,3.90
2023-03-13T03:59:30.424Z,4.00
2023-03-13T04:00:30.436Z,3.60
2023-03-13T04:01:30.402Z,4.60
2023-03-13T04:02:30.472Z,4.10
2023-03-13T04:03:30.524Z,3.90
2023-03-13T04:04:30.372Z,3.60
2023-03-13T04:05:30.361Z,3.70
2023-03-13T04:06:30.350Z,3.40
2023-03-13T04:07:30.410Z,4.30
2023-03-13T04:08:30.348Z,3.30
2023-03-13T04:09:32.033Z,3.60
2023-03-13T04:10:30.308Z,3.90
2023-03-13T04:11:30.338Z,3.50
2023-03-13T04:12:30.299Z,3.80
2023-03-13T04:13:30.305Z,3.50
2023-03-13T04:14:30.267Z,3.70
2023-03-13T04:15:30.281Z,4.40
2023-03-13T04:16:30.316Z,4.00
2023-03-13T04:17:30.227Z,4.10
2023-03-13T04:18:30.227Z,3.90
2023-03-13T04:19:30.212Z,4.50
2023-03-13T04:20:30.225Z,3.80
2023-03-13T04:21:30.188Z,4.20
2023-03-13T04:22:30.173Z,3.20
2023-03-13T04:23:30.195Z,3.70
2023-03-13T04:24:30.155Z,4.50
2023-03-13T04:25:30.140Z,4.00
2023-03-13T04:26:30.132Z,4.30
2023-03-13T04:27:30.139Z,3.60
2023-03-13T04:28:30.136Z,4.50
2023-03-13T04:29:30.112Z,4.20
2023-03-13T04:30:30.136Z,4.40
2023-03-13T04:31:30.104Z,4.10
2023-03-13T04:32:30.115Z,4.00
2023-03-13T04:33:30.071Z,3.40
2023-03-13T04:34:30.041Z,3.90
2023-03-13T04:35:30.088Z,4.40
2023-03-13T04:36:30.025Z,3.90
2023-03-13T04:37:30.018Z,3.90
2023-03-13T04:38:30.034Z,4.80
2023-03-13T04:39:32.668Z,3.90
2023-03-13T04:40:29.986Z,4.10
2023-03-13T04:41:29.972Z,4.70
2023-03-13T04:42:29.988Z,4.20
2023-03-13T04:43:29.994Z,4.20
2023-03-13T04:44:29.932Z,3.80
2023-03-13T04:45:29.922Z,4.40
2023-03-13T04:46:29.978Z,4.50
2023-03-13T04:47:29.904Z,4.30
2023-03-13T04:48:29.906Z,4.20
2023-03-13T04:49:29.876Z,4.40
2023-03-13T04:50:29.862Z,4.90
2023-03-13T04:51:29.858Z,4.40
2023-03-13T04:52:29.877Z,3.80
2023-03-13T04:53:29.849Z,4.40
2023-03-13T04:54:29.837Z,4.10
2023-03-13T04:55:29.807Z,4.10
2023-03-13T04:56:42.708Z,4.40
2023-03-13T04:57:30.811Z,4.10
2023-03-13T04:58:29.775Z,3.90
2023-03-13T04:59:29.817Z,4.60
2023-03-13T05:00:29.776Z,4.30
2023-03-13T05:01:29.808Z,5.00
2023-03-13T05:02:29.754Z,4.00
2023-03-13T05:03:29.738Z,4.50
2023-03-13T05:04:29.750Z,4.50
2023-03-13T05:05:29.802Z,4.10
2023-03-13T05:06:29.689Z,4.40
2023-03-13T05:07:29.674Z,4.50
2023-03-13T05:08:29.686Z,4.40
2023-03-13T05:09:29.653Z,4.40
2023-03-13T05:10:29.659Z,4.10
2023-03-13T05:11:29.640Z,3.70
2023-03-13T05:12:29.617Z,4.30
2023-03-13T05:13:29.625Z,4.40
2023-03-13T05:14:29.600Z,3.70
2023-03-13T05:15:29.612Z,4.20
2023-03-13T05:16:29.644Z,4.20
2023-03-13T05:17:29.594Z,4.50
2023-03-13T05:18:29.587Z,3.90
2023-03-13T05:19:29.558Z,4.30
2023-03-13T05:20:29.550Z,4.00
2023-03-13T05:21:29.599Z,4.00
2023-03-13T05:22:29.529Z,4.30
2023-03-13T05:23:29.556Z,4.10
2023-03-13T05:24:29.502Z,3.80
2023-03-13T05:25:29.554Z,3.80
2023-03-13T05:26:29.494Z,3.90
2023-03-13T05:27:29.505Z,4.00
2023-03-13T05:28:29.454Z,4.40
2023-03-13T05:29:29.530Z,4.20
2023-03-13T05:30:29.467Z,4.50
2023-03-13T05:31:29.612Z,4.30
2023-03-13T05:32:29.466Z,4.20
2023-03-13T05:33:29.396Z,4.10
2023-03-13T05:34:29.384Z,4.30
2023-03-13T05:35:29.454Z,4.70
2023-03-13T05:36:29.378Z,4.50
2023-03-13T05:37:29.441Z,3.80
2023-03-13T05:38:29.341Z,4.00
2023-03-13T05:39:29.391Z,3.80
2023-03-13T05:40:29.337Z,3.90
2023-03-13T05:41:29.306Z,4.20
2023-03-13T05:42:29.342Z,4.00
2023-03-13T05:43:29.330Z,3.80
2023-03-13T05:44:29.296Z,3.70
2023-03-13T05:45:29.278Z,3.50
2023-03-13T05:46:29.344Z,4.00
2023-03-13T05:47:29.262Z,3.70
2023-03-13T05:48:29.308Z,3.50
2023-03-13T05:49:29.327Z,3.00
2023-03-13T05:50:29.254Z,2.80
2023-03-13T05:51:29.221Z,2.70
2023-03-13T05:52:29.176Z,2.20
2023-03-13T05:53:29.166Z,2.20
2023-03-13T05:54:29.168Z,2.80
2023-03-13T05:55:29.146Z,2.40
2023-03-13T05:56:29.152Z,2.20
2023-03-13T05:57:29.203Z,2.60
2023-03-13T05:58:29.121Z,2.40
2023-03-13T05:59:29.128Z,2.60
2023-03-13T06:00:29.119Z,2.50
2023-03-13T06:01:29.095Z,2.50
2023-03-13T06:02:29.077Z,2.60
2023-03-13T06:03:29.221Z,2.70
2023-03-13T06:04:29.200Z,2.30
2023-03-13T06:05:29.173Z,2.30
2023-03-13T06:06:29.017Z,2.40
2023-03-13T06:07:29.033Z,2.40
2023-03-13T06:08:29.028Z,3.30
2023-03-13T06:09:29.005Z,2.80
2023-03-13T06:10:28.988Z,2.80
2023-03-13T06:11:28.992Z,2.60
2023-03-13T06:12:28.977Z,2.70
2023-03-13T06:13:28.934Z,2.70
2023-03-13T06:14:28.953Z,2.30
2023-03-13T06:15:28.910Z,2.70
2023-03-13T06:16:28.976Z,2.40
2023-03-13T06:17:28.897Z,2.70
2023-03-13T06:18:28.880Z,2.60
2023-03-13T06:19:28.940Z,2.90
2023-03-13T06:20:28.853Z,3.00
2023-03-13T06:21:28.857Z,2.60
2023-03-13T06:22:28.830Z,2.70
2023-03-13T06:23:28.849Z,2.50
2023-03-13T06:24:28.830Z,2.40
2023-03-13T06:25:28.826Z,3.00
2023-03-13T06:26:28.798Z,2.50
2023-03-13T06:27:28.788Z,2.60
2023-03-13T06:28:28.797Z,2.70
2023-03-13T06:29:28.800Z,3.00
2023-03-13T06:30:28.783Z,2.60
2023-03-13T06:31:28.759Z,2.90
2023-03-13T06:32:29.054Z,2.60
2023-03-13T06:33:28.839Z,2.60
2023-03-13T06:34:28.709Z,2.40
2023-03-13T06:35:28.747Z,2.70
2023-03-13T06:36:28.754Z,2.20
2023-03-13T06:37:28.681Z,2.50
2023-03-13T06:38:28.698Z,2.70
2023-03-13T06:39:28.662Z,2.70
2023-03-13T06:40:28.671Z,2.40
2023-03-13T06:41:28.695Z,2.50
2023-03-13T06:42:28.638Z,2.20
2023-03-13T06:43:28.694Z,2.80
2023-03-13T06:44:28.600Z,2.30
2023-03-13T06:45:28.605Z,2.50
2023-03-13T06:46:28.637Z,2.40
2023-03-13T06:47:28.555Z,2.30
2023-03-13T06:48:28.565Z,2.60
2023-03-13T06:49:28.547Z,2.30
2023-03-13T06:50:28.576Z,2.50
2023-03-13T06:51:28.537Z,2.10
2023-03-13T06:52:37.779Z,2.20
2023-03-13T06:53:29.500Z,2.20
2023-03-13T06:54:28.489Z,2.10
2023-03-13T06:55:28.505Z,2.60
2023-03-13T06:56:28.470Z,2.40
2023-03-13T06:57:28.487Z,1.90
2023-03-13T06:58:32.600Z,2.10
2023-03-13T06:59:28.499Z,2.10
2023-03-13T07:00:28.585Z,2.30
2023-03-13T07:01:28.595Z,2.10
2023-03-13T07:02:28.445Z,2.60
2023-03-13T07:03:28.426Z,2.10
2023-03-13T07:04:28.389Z,2.10
2023-03-13T07:05:28.373Z,2.00
2023-03-13T07:06:28.405Z,1.80
2023-03-13T07:07:32.347Z,1.80
2023-03-13T07:08:28.339Z,2.10
2023-03-13T07:09:28.329Z,2.20
2023-03-13T07:10:28.340Z,1.90
2023-03-13T07:11:28.307Z,1.70
2023-03-13T07:12:28.314Z,1.90
2023-03-13T07:13:28.270Z,2.00
2023-03-13T07:14:28.273Z,2.20
2023-03-13T07:15:28.283Z,2.00
2023-03-13T07:16:28.284Z,1.80
2023-03-13T07:17:28.291Z,2.00
2023-03-13T07:18:28.259Z,2.10
2023-03-13T07:19:28.215Z,2.20
2023-03-13T07:20:28.314Z,2.30
2023-03-13T07:21:28.202Z,2.00
2023-03-13T07:22:28.214Z,2.20
2023-03-13T07:23:28.186Z,2.30
2023-03-13T07:24:35.224Z,2.00
2023-03-13T07:25:28.139Z,1.90
2023-03-13T07:26:28.195Z,2.00
2023-03-13T07:27:28.187Z,2.10
2023-03-13T07:28:28.145Z,2.40
2023-03-13T07:29:28.121Z,2.20
2023-03-13T07:30:28.127Z,1.90
2023-03-13T07:31:28.199Z,1.90
2023-03-13T07:32:28.149Z,1.90
2023-03-13T07:33:28.051Z,2.40
2023-03-13T07:34:28.070Z,2.00
2023-03-13T07:35:28.026Z,1.90
2023-03-13T07:36:28.134Z,2.20
2023-03-13T07:37:28.009Z,2.00
2023-03-13T07:38:28.003Z,2.20
2023-03-13T07:39:28.039Z,2.30
2023-03-13T07:40:28.072Z,2.10
2023-03-13T07:41:27.958Z,2.20
2023-03-13T07:42:27.960Z,2.00
2023-03-13T07:43:27.948Z,2.10
2023-03-13T07:44:27.932Z,2.00
2023-03-13T07:45:27.989Z,2.10
2023-03-13T07:46:27.897Z,2.10
2023-03-13T07:47:27.941Z,2.30
2023-03-13T07:48:27.903Z,2.00
2023-03-13T07:49:27.871Z,2.10
2023-03-13T07:50:28.190Z,2.00
2023-03-13T07:51:42.543Z,2.10
2023-03-13T07:52:28.854Z,2.00
2023-03-13T07:53:27.877Z,2.20
2023-03-13T07:54:27.820Z,1.80
2023-03-13T07:55:27.836Z,2.20
2023-03-13T07:56:27.785Z,2.40
2023-03-13T07:57:27.801Z,2.30
2023-03-13T07:58:27.785Z,2.40
2023-03-13T07:59:27.785Z,1.90
2023-03-13T08:00:27.744Z,2.60
2023-03-13T08:01:30.488Z,2.20
2023-03-13T08:02:27.866Z,1.90
2023-03-13T08:03:27.759Z,1.90
2023-03-13T08:04:27.724Z,2.10
2023-03-13T08:05:27.686Z,2.10
2023-03-13T08:06:27.726Z,2.40
2023-03-13T08:07:27.676Z,2.00
2023-03-13T08:08:27.670Z,2.30
2023-03-13T08:09:27.715Z,2.30
2023-03-13T08:10:27.708Z,1.70
2023-03-13T08:11:27.664Z,2.10
2023-03-13T08:12:27.609Z,2.10
2023-03-13T08:13:27.599Z,2.20
2023-03-13T08:14:27.601Z,2.10
2023-03-13T08:15:27.569Z,2.00
2023-03-13T08:16:27.709Z,2.40
2023-03-13T08:17:27.552Z,2.10
2023-03-13T08:18:27.558Z,2.30
2023-03-13T08:19:27.532Z,2.10
2023-03-13T08:20:27.515Z,2.00
2023-03-13T08:21:27.516Z,1.80
2023-03-13T08:22:27.504Z,1.80
2023-03-13T08:23:27.502Z,2.10
2023-03-13T08:24:27.509Z,1.80
2023-03-13T08:25:27.483Z,2.20
2023-03-13T08:26:27.458Z,2.20
2023-03-13T08:27:27.459Z,2.30
2023-03-13T08:28:27.450Z,2.30
2023-03-13T08:29:27.414Z,2.00
2023-03-13T08:30:27.550Z,2.20
2023-03-13T08:31:27.388Z,2.20
2023-03-13T08:32:27.429Z,2.20
2023-03-13T08:33:27.390Z,1.80
2023-03-13T08:34:27.422Z,1.90
2023-03-13T08:35:27.401Z,2.00
2023-03-13T08:36:27.353Z,2.00
2023-03-13T08:37:27.324Z,2.00
2023-03-13T08:38:27.315Z,2.50
2023-03-13T08:39:27.328Z,2.20
2023-03-13T08:40:27.298Z,2.20
2023-03-13T08:41:27.276Z,1.90
2023-03-13T08:42:27.271Z,2.10
2023-03-13T08:43:27.283Z,2.20
2023-03-13T08:44:27.276Z,2.20
2023-03-13T08:45:27.236Z,2.00
2023-03-13T08:46:27.323Z,2.10
2023-03-13T08:47:27.210Z,2.10
2023-03-13T08:48:27.226Z,2.00
2023-03-13T08:49:27.213Z,2.00
2023-03-13T08:50:27.183Z,2.20
2023-03-13T08:51:27.171Z,2.00
2023-03-13T08:52:27.164Z,2.30
2023-03-13T08:53:27.148Z,2.20
2023-03-13T08:54:27.171Z,2.20
2023-03-13T08:55:27.141Z,2.40
2023-03-13T08:56:27.142Z,2.40
2023-03-13T08:57:27.113Z,2.70
2023-03-13T08:58:27.111Z,2.50
2023-03-13T08:59:27.109Z,2.20
2023-03-13T09:00:27.093Z,2.50
2023-03-13T09:01:27.067Z,2.10
2023-03-13T09:02:27.132Z,2.10
2023-03-13T09:03:27.143Z,2.30
2023-03-13T09:04:27.029Z,2.10
2023-03-13T09:05:27.018Z,2.00
2023-03-13T09:06:27.009Z,2.20
2023-03-13T09:07:27.000Z,2.10
2023-03-13T09:08:27.013Z,2.10
2023-03-13T09:09:26.981Z,1.80
2023-03-13T09:10:26.958Z,1.60
2023-03-13T09:11:26.977Z,1.80
2023-03-13T09:12:31.204Z,2.00
2023-03-13T09:13:26.970Z,1.70
2023-03-13T09:14:26.924Z,1.70
2023-03-13T09:15:27.048Z,2.00
2023-03-13T09:16:26.898Z,1.50
2023-03-13T09:17:26.897Z,1.80
2023-03-13T09:18:26.932Z,1.50
2023-03-13T09:19:26.875Z,1.50
2023-03-13T09:20:26.885Z,1.70
2023-03-13T09:21:26.923Z,1.50
2023-03-13T09:22:26.829Z,1.40
2023-03-13T09:23:26.813Z,1.70
2023-03-13T09:24:26.903Z,1.50
2023-03-13T09:25:26.798Z,1.40
2023-03-13T09:26:26.804Z,1.40
2023-03-13T09:27:26.801Z,1.60
2023-03-13T09:28:26.763Z,1.60
2023-03-13T09:29:26.991Z,1.30
2023-03-13T09:30:26.746Z,1.40
2023-03-13T09:31:26.907Z,1.50
2023-03-13T09:32:26.806Z,1.40
2023-03-13T09:33:26.715Z,1.40
2023-03-13T09:34:26.698Z,1.60
2023-03-13T09:35:26.684Z,1.10
2023-03-13T09:36:26.746Z,1.20
2023-03-13T09:37:26.667Z,1.40
2023-03-13T09:38:26.650Z,1.30
2023-03-13T09:39:26.654Z,1.70
2023-03-13T09:40:26.637Z,1.20
2023-03-13T09:41:26.614Z,1.20
2023-03-13T09:42:26.639Z,1.20
2023-03-13T09:43:26.604Z,1.20
2023-03-13T09:44:26.625Z,1.40
2023-03-13T09:45:26.600Z,1.10
2023-03-13T09:46:26.671Z,1.20
2023-03-13T09:47:26.579Z,1.20
2023-03-13T09:48:26.565Z,1.30
2023-03-13T09:49:26.536Z,1.30
2023-03-13T09:50:26.541Z,1.20
2023-03-13T09:51:26.506Z,1.00
2023-03-13T09:52:26.545Z,1.10
2023-03-13T09:53:26.484Z,1.30
2023-03-13T09:54:26.480Z,1.30
2023-03-13T09:55:26.454Z,1.40
2023-03-13T09:56:26.447Z,1.10
2023-03-13T09:57:26.459Z,1.10
2023-03-13T09:58:26.431Z,1.20
2023-03-13T09:59:26.418Z,1.20
2023-03-13T10:00:26.427Z,1.10
2023-03-13T10:01:26.439Z,1.20
2023-03-13T10:02:26.420Z,1.20
2023-03-13T10:03:26.402Z,1.00
2023-03-13T10:04:26.445Z,1.00
2023-03-13T10:05:26.354Z,1.30
2023-03-13T10:06:26.365Z,1.10
2023-03-13T10:07:26.327Z,1.30
2023-03-13T10:08:26.338Z,0.90
2023-03-13T10:09:26.302Z,1.00
2023-03-13T10:10:26.306Z,1.00
2023-03-13T10:11:26.298Z,1.50
2023-03-13T10:12:26.268Z,1.20
2023-03-13T10:13:26.259Z,1.00
2023-03-13T10:14:26.244Z,1.10
2023-03-13T10:15:26.252Z,1.30
2023-03-13T10:16:26.253Z,1.10
2023-03-13T10:17:26.219Z,0.80
2023-03-13T10:18:26.199Z,1.30
2023-03-13T10:19:26.210Z,1.10
2023-03-13T10:20:26.210Z,1.10
2023-03-13T10:21:26.164Z,1.20
2023-03-13T10:22:26.187Z,1.00
2023-03-13T10:23:26.169Z,1.30
2023-03-13T10:24:26.168Z,1.30
2023-03-13T10:25:26.129Z,1.20
2023-03-13T10:26:26.131Z,1.10
2023-03-13T10:27:26.103Z,1.00
2023-03-13T10:28:26.117Z,1.20
2023-03-13T10:29:26.108Z,1.20
2023-03-13T10:30:26.064Z,1.10
2023-03-13T10:31:26.108Z,1.40
2023-03-13T10:32:26.096Z,1.30
2023-03-13T10:33:26.035Z,1.40
2023-03-13T10:34:26.041Z,1.30
2023-03-13T10:35:26.135Z,1.20
2023-03-13T10:36:26.000Z,1.10
2023-03-13T10:37:26.019Z,1.40
2023-03-13T10:38:25.985Z,1.10
2023-03-13T10:39:25.995Z,1.50
2023-03-13T10:40:25.993Z,1.00
2023-03-13T10:41:25.941Z,1.40
2023-03-13T10:42:25.933Z,1.30
2023-03-13T10:43:25.924Z,1.40
2023-03-13T10:44:25.922Z,1.50
2023-03-13T10:45:25.923Z,1.10
2023-03-13T10:46:25.924Z,1.30
2023-03-13T10:47:25.875Z,1.40
2023-03-13T10:48:25.870Z,1.50
2023-03-13T10:49:25.873Z,1.40
2023-03-13T10:50:25.883Z,1.50
2023-03-13T10:51:25.870Z,1.40
2023-03-13T10:52:25.882Z,1.20
2023-03-13T10:53:25.814Z,1.20
2023-03-13T10:54:25.823Z,1.20
2023-03-13T10:55:25.783Z,1.20
2023-03-13T10:56:25.782Z,1.40
2023-03-13T10:57:25.795Z,1.20
2023-03-13T10:58:25.766Z,1.10
2023-03-13T10:59:25.742Z,1.30
2023-03-13T11:00:25.738Z,1.30
2023-03-13T11:01:25.752Z,1.50
2023-03-13T11:02:25.772Z,1.20
2023-03-13T11:03:25.839Z,1.70
2023-03-13T11:04:25.685Z,1.50
2023-03-13T11:05:25.674Z,1.30
2023-03-13T11:06:25.660Z,1.40
2023-03-13T11:07:25.688Z,1.10
2023-03-13T11:08:25.718Z,1.40
2023-03-13T11:09:25.636Z,1.40
2023-03-13T11:10:25.616Z,1.20
2023-03-13T11:11:25.607Z,1.60
2023-03-13T11:12:25.595Z,1.40
2023-03-13T11:13:36.093Z,1.40
2023-03-13T11:14:26.647Z,1.40
2023-03-13T11:15:25.621Z,1.50
2023-03-13T11:16:25.616Z,1.30
2023-03-13T11:17:25.555Z,1.20
2023-03-13T11:18:25.532Z,1.50
2023-03-13T11:19:25.517Z,1.30
2023-03-13T11:20:25.528Z,1.40
2023-03-13T11:21:25.527Z,1.30
2023-03-13T11:22:25.528Z,1.50
2023-03-13T11:23:25.528Z,1.50
2023-03-13T11:24:25.484Z,1.10
2023-03-13T11:25:25.475Z,1.50
2023-03-13T11:26:25.480Z,1.20
2023-03-13T11:27:25.452Z,1.50
2023-03-13T11:28:25.453Z,1.50
2023-03-13T11:29:25.460Z,1.30
2023-03-13T11:30:25.419Z,1.40
2023-03-13T11:31:25.435Z,1.30
2023-03-13T11:32:25.424Z,1.20
2023-03-13T11:33:25.364Z,1.30
2023-03-13T11:34:25.362Z,1.80
2023-03-13T11:35:25.346Z,1.50
2023-03-13T11:36:25.374Z,1.60
2023-03-13T11:37:25.315Z,1.20
2023-03-13T11:38:25.321Z,1.60
2023-03-13T11:39:25.407Z,1.30
2023-03-13T11:40:25.291Z,1.40
2023-03-13T11:41:25.296Z,1.50
2023-03-13T11:42:25.282Z,1.60
2023-03-13T11:43:26.121Z,1.40
2023-03-13T11:44:25.262Z,1.50
2023-03-13T11:45:25.243Z,1.50
2023-03-13T11:46:25.417Z,1.30
2023-03-13T11:47:25.241Z,1.30
2023-03-13T11:48:25.243Z,1.30
2023-03-13T11:49:25.199Z,1.40
2023-03-13T11:50:25.175Z,1.70
2023-03-13T11:51:25.180Z,1.30
2023-03-13T11:52:25.153Z,1.40
2023-03-13T11:53:25.210Z,1.30
2023-03-13T11:54:25.166Z,1.50
2023-03-13T11:55:25.164Z,1.40
2023-03-13T11:56:25.105Z,1.60
2023-03-13T11:57:25.149Z,1.50
2023-03-13T11:58:25.170Z,1.50
2023-03-13T11:59:25.078Z,1.60
2023-03-13T12:00:25.059Z,1.40
2023-03-13T12:01:25.048Z,1.50
2023-03-13T12:02:25.174Z,1.30
2023-03-13T12:03:25.037Z,1.20
2023-03-13T12:04:25.028Z,1.20
2023-03-13T12:05:25.123Z,1.50
2023-03-13T12:06:28.201Z,1.30
2023-03-13T12:07:24.983Z,1.30
2023-03-13T12:08:24.994Z,1.20
2023-03-13T12:09:27.187Z,1.40
2023-03-13T12:10:24.978Z,1.40
2023-03-13T12:11:24.970Z,1.40
2023-03-13T12:12:24.932Z,1.20
2023-03-13T12:13:24.940Z,1.40
2023-03-13T12:14:24.925Z,1.10
2023-03-13T12:15:24.901Z,1.10
2023-03-13T12:16:24.930Z,1.40
2023-03-13T12:17:24.924Z,1.60
2023-03-13T12:18:24.887Z,1.40
2023-03-13T12:19:24.855Z,1.30
2023-03-13T12:20:24.841Z,1.10
2023-03-13T12:21:24.839Z,1.50
2023-03-13T12:22:24.823Z,1.40
2023-03-13T12:23:24.897Z,1.40
2023-03-13T12:24:24.812Z,1.10
2023-03-13T12:25:24.873Z,1.40
2023-03-13T12:26:24.869Z,1.30
2023-03-13T12:27:24.797Z,1.30
2023-03-13T12:28:24.834Z,1.50
2023-03-13T12:29:24.736Z,1.30
2023-03-13T12:30:24.792Z,1.30
2023-03-13T12:31:24.725Z,1.10
2023-03-13T12:32:24.770Z,1.30
2023-03-13T12:33:24.722Z,1.30
2023-03-13T12:34:24.712Z,1.10
2023-03-13T12:35:24.831Z,1.00
2023-03-13T12:36:24.713Z,1.00
2023-03-13T12:37:24.653Z,1.30
2023-03-13T12:38:24.640Z,1.20
2023-03-13T12:39:24.657Z,1.20
2023-03-13T12:40:24.617Z,1.30
2023-03-13T12:41:24.618Z,1.20
2023-03-13T12:42:24.615Z,1.10
2023-03-13T12:43:24.622Z,1.30
2023-03-13T12:44:24.604Z,1.30
2023-03-13T12:45:24.744Z,1.30
2023-03-13T12:46:24.632Z,1.10
2023-03-13T12:47:26.929Z,1.30
2023-03-13T12:48:24.641Z,1.20
2023-03-13T12:49:24.545Z,1.10
2023-03-13T12:50:24.527Z,1.10
2023-03-13T12:51:24.529Z,1.30
2023-03-13T12:52:24.526Z,1.10
2023-03-13T12:53:24.514Z,1.20
2023-03-13T12:54:24.487Z,1.40
2023-03-13T12:55:24.510Z,1.00
2023-03-13T12:56:24.471Z,0.90
2023-03-13T12:57:24.493Z,1.20
2023-03-13T12:58:24.420Z,1.10
2023-03-13T12:59:24.479Z,1.20
2023-03-13T13:00:24.430Z,1.40
2023-03-13T13:01:24.486Z,1.30
2023-03-13T13:02:24.373Z,1.10
2023-03-13T13:03:24.369Z,1.20
2023-03-13T13:04:24.382Z,1.00
2023-03-13T13:05:24.347Z,1.00
2023-03-13T13:06:24.351Z,0.80
2023-03-13T13:07:24.337Z,0.90
2023-03-13T13:08:24.303Z,1.00
2023-03-13T13:09:24.305Z,1.00
2023-03-13T13:10:24.285Z,0.90
2023-03-13T13:11:24.465Z,0.90
2023-03-13T13:12:24.293Z,1.00
2023-03-13T13:13:24.256Z,0.70
2023-03-13T13:14:24.244Z,1.00
2023-03-13T13:15:24.250Z,0.80
2023-03-13T13:16:24.264Z,0.90
2023-03-13T13:17:24.249Z,1.00
2023-03-13T13:18:24.198Z,0.90